sensor_id;sensor_type;location;lat;lon;timestamp;temperature;humidity
20158;DHT22;10239;56.820;24.416;2023-05-07T00:01:05;2.50;99.90
20158;DHT22;10239;56.820;24.416;2023-05-07T00:03:33;2.60;99.90
20158;DHT22;10239;56.820;24.416;2023-05-07T00:06:01;2.40;99.90
20158;DHT22;10239;56.820;24.416;2023-05-07T00:08:29;2.40;99.90
20158;DHT22;10239;56.820;24.416;2023-05-07T00:10:56;2.40;99.90
20158;DHT22;10239;56.820;24.416;2023-05-07T00:13:24;2.30;99.90
20158;DHT22;10239;56.820;24.416;2023-05-07T00:15:52;2.10;99.90
20158;DHT22;10239;56.820;24.416;2023-05-07T00:18:19;2.00;99.90
20158;DHT22;10239;56.820;24.416;2023-05-07T00:20:49;1.80;99.90
20158;DHT22;10239;56.820;24.416;2023-05-07T00:23:17;1.70;99.90
20158;DHT22;10239;56.820;24.416;2023-05-07T00:25:45;1.70;99.90
20158;DHT22;10239;56.820;24.416;2023-05-07T00:28:12;1.70;99.90
20158;DHT22;10239;56.820;24.416;2023-05-07T00:30:40;1.70;99.90
20158;DHT22;10239;56.820;24.416;2023-05-07T00:33:08;1.80;99.90
20158;DHT22;10239;56.820;24.416;2023-05-07T00:35:35;1.80;99.90
20158;DHT22;10239;56.820;24.416;2023-05-07T00:38:03;1.80;99.90
20158;DHT22;10239;56.820;24.416;2023-05-07T00:40:30;1.80;99.90
20158;DHT22;10239;56.820;24.416;2023-05-07T00:42:58;1.80;99.90
20158;DHT22;10239;56.820;24.416;2023-05-07T00:45:28;1.80;99.90
20158;DHT22;10239;56.820;24.416;2023-05-07T00:47:58;1.80;99.90
20158;DHT22;10239;56.820;24.416;2023-05-07T00:50:26;1.90;99.90
20158;DHT22;10239;56.820;24.416;2023-05-07T00:52:55;1.80;99.90
20158;DHT22;10239;56.820;24.416;2023-05-07T00:55:23;1.70;99.90
20158;DHT22;10239;56.820;24.416;2023-05-07T00:57:51;1.60;99.90
20158;DHT22;10239;56.820;24.416;2023-05-07T01:00:19;1.50;99.90
20158;DHT22;10239;56.820;24.416;2023-05-07T01:02:47;1.40;99.90
20158;DHT22;10239;56.820;24.416;2023-05-07T01:05:17;1.50;99.90
20158;DHT22;10239;56.820;24.416;2023-05-07T01:07:46;1.50;99.90
20158;DHT22;10239;56.820;24.416;2023-05-07T01:10:15;1.60;99.90
20158;DHT22;10239;56.820;24.416;2023-05-07T01:12:43;1.70;99.90
20158;DHT22;10239;56.820;24.416;2023-05-07T01:15:12;1.80;99.90
20158;DHT22;10239;56.820;24.416;2023-05-07T01:17:41;1.90;99.90
20158;DHT22;10239;56.820;24.416;2023-05-07T01:20:23;1.90;99.90
20158;DHT22;10239;56.820;24.416;2023-05-07T01:22:53;1.90;99.90
20158;DHT22;10239;56.820;24.416;2023-05-07T01:25:22;1.90;99.90
20158;DHT22;10239;56.820;24.416;2023-05-07T01:27:52;1.70;99.90
20158;DHT22;10239;56.820;24.416;2023-05-07T01:30:23;1.60;99.90
20158;DHT22;10239;56.820;24.416;2023-05-07T01:32:57;1.30;99.90
20158;DHT22;10239;56.820;24.416;2023-05-07T01:35:33;1.30;99.90
20158;DHT22;10239;56.820;24.416;2023-05-07T01:38:02;1.20;99.90
20158;DHT22;10239;56.820;24.416;2023-05-07T01:40:31;1.20;99.90
20158;DHT22;10239;56.820;24.416;2023-05-07T01:43:00;1.10;99.90
20158;DHT22;10239;56.820;24.416;2023-05-07T01:45:29;1.10;99.90
20158;DHT22;10239;56.820;24.416;2023-05-07T01:47:58;1.30;99.90
20158;DHT22;10239;56.820;24.416;2023-05-07T01:50:27;1.40;99.90
20158;DHT22;10239;56.820;24.416;2023-05-07T01:52:55;1.50;99.90
20158;DHT22;10239;56.820;24.416;2023-05-07T01:55:23;1.50;99.90
20158;DHT22;10239;56.820;24.416;2023-05-07T01:57:51;1.40;99.90
20158;DHT22;10239;56.820;24.416;2023-05-07T02:00:18;1.40;99.90
20158;DHT22;10239;56.820;24.416;2023-05-07T02:02:46;1.30;99.90
20158;DHT22;10239;56.820;24.416;2023-05-07T02:05:24;1.20;99.90
20158;DHT22;10239;56.820;24.416;2023-05-07T02:07:58;1.10;99.90
20158;DHT22;10239;56.820;24.416;2023-05-07T02:10:27;1.20;99.90
20158;DHT22;10239;56.820;24.416;2023-05-07T02:12:55;1.30;99.90
20158;DHT22;10239;56.820;24.416;2023-05-07T02:15:22;1.20;99.90
20158;DHT22;10239;56.820;24.416;2023-05-07T02:18:05;1.20;99.90
20158;DHT22;10239;56.820;24.416;2023-05-07T02:20:39;1.30;99.90
20158;DHT22;10239;56.820;24.416;2023-05-07T02:23:06;1.40;99.90
20158;DHT22;10239;56.820;24.416;2023-05-07T02:25:34;1.30;99.90
20158;DHT22;10239;56.820;24.416;2023-05-07T02:28:02;1.30;99.90
20158;DHT22;10239;56.820;24.416;2023-05-07T02:30:39;1.30;99.90
20158;DHT22;10239;56.820;24.416;2023-05-07T02:33:08;1.20;99.90
20158;DHT22;10239;56.820;24.416;2023-05-07T02:35:36;1.20;99.90
20158;DHT22;10239;56.820;24.416;2023-05-07T02:38:04;1.30;99.90
20158;DHT22;10239;56.820;24.416;2023-05-07T02:40:33;1.30;99.90
20158;DHT22;10239;56.820;24.416;2023-05-07T02:43:01;1.30;99.90
20158;DHT22;10239;56.820;24.416;2023-05-07T02:45:28;1.30;99.90
20158;DHT22;10239;56.820;24.416;2023-05-07T02:47:56;1.30;99.90
20158;DHT22;10239;56.820;24.416;2023-05-07T02:50:24;1.40;99.90
20158;DHT22;10239;56.820;24.416;2023-05-07T02:52:53;1.60;99.90
20158;DHT22;10239;56.820;24.416;2023-05-07T02:55:20;1.70;99.90
20158;DHT22;10239;56.820;24.416;2023-05-07T02:57:48;1.80;99.90
20158;DHT22;10239;56.820;24.416;2023-05-07T03:00:17;1.90;99.90
20158;DHT22;10239;56.820;24.416;2023-05-07T03:03:08;1.80;99.90
20158;DHT22;10239;56.820;24.416;2023-05-07T03:05:36;1.80;99.90
20158;DHT22;10239;56.820;24.416;2023-05-07T03:08:04;2.00;99.90
20158;DHT22;10239;56.820;24.416;2023-05-07T03:10:32;2.10;99.90
20158;DHT22;10239;56.820;24.416;2023-05-07T03:13:00;2.20;99.90
20158;DHT22;10239;56.820;24.416;2023-05-07T03:15:29;2.20;99.90
20158;DHT22;10239;56.820;24.416;2023-05-07T03:17:57;2.20;99.90
20158;DHT22;10239;56.820;24.416;2023-05-07T03:20:25;2.20;99.90
20158;DHT22;10239;56.820;24.416;2023-05-07T03:22:53;2.80;99.90
20158;DHT22;10239;56.820;24.416;2023-05-07T03:25:20;2.60;99.90
20158;DHT22;10239;56.820;24.416;2023-05-07T03:27:47;2.80;99.90
20158;DHT22;10239;56.820;24.416;2023-05-07T03:30:18;2.90;99.90
20158;DHT22;10239;56.820;24.416;2023-05-07T03:32:46;3.00;99.90
20158;DHT22;10239;56.820;24.416;2023-05-07T03:35:14;3.10;99.90
20158;DHT22;10239;56.820;24.416;2023-05-07T03:37:42;3.10;99.90
20158;DHT22;10239;56.820;24.416;2023-05-07T03:40:11;3.20;99.90
20158;DHT22;10239;56.820;24.416;2023-05-07T03:42:47;3.10;99.90
20158;DHT22;10239;56.820;24.416;2023-05-07T03:45:17;3.10;99.90
20158;DHT22;10239;56.820;24.416;2023-05-07T03:47:50;3.30;99.90
20158;DHT22;10239;56.820;24.416;2023-05-07T03:50:20;3.40;99.90
20158;DHT22;10239;56.820;24.416;2023-05-07T03:52:48;3.60;99.90
20158;DHT22;10239;56.820;24.416;2023-05-07T03:55:18;3.60;99.90
20158;DHT22;10239;56.820;24.416;2023-05-07T03:57:50;3.70;99.90
20158;DHT22;10239;56.820;24.416;2023-05-07T04:00:19;3.90;99.90
20158;DHT22;10239;56.820;24.416;2023-05-07T04:02:48;3.90;99.90
20158;DHT22;10239;56.820;24.416;2023-05-07T04:05:22;3.90;99.90
20158;DHT22;10239;56.820;24.416;2023-05-07T04:07:54;4.00;99.90
20158;DHT22;10239;56.820;24.416;2023-05-07T04:10:29;4.10;99.90
20158;DHT22;10239;56.820;24.416;2023-05-07T04:12:59;4.20;99.90
20158;DHT22;10239;56.820;24.416;2023-05-07T04:15:27;4.30;99.90
20158;DHT22;10239;56.820;24.416;2023-05-07T04:17:55;4.40;99.90
20158;DHT22;10239;56.820;24.416;2023-05-07T04:20:24;4.60;99.90
20158;DHT22;10239;56.820;24.416;2023-05-07T04:22:58;4.60;99.90
20158;DHT22;10239;56.820;24.416;2023-05-07T04:25:27;4.80;99.90
20158;DHT22;10239;56.820;24.416;2023-05-07T04:28:01;5.00;99.90
20158;DHT22;10239;56.820;24.416;2023-05-07T04:30:30;5.20;99.90
20158;DHT22;10239;56.820;24.416;2023-05-07T04:32:57;5.40;99.90
20158;DHT22;10239;56.820;24.416;2023-05-07T04:35:28;5.60;99.90
20158;DHT22;10239;56.820;24.416;2023-05-07T04:37:55;5.70;99.90
20158;DHT22;10239;56.820;24.416;2023-05-07T04:40:22;5.80;99.90
20158;DHT22;10239;56.820;24.416;2023-05-07T04:42:50;6.00;99.90
20158;DHT22;10239;56.820;24.416;2023-05-07T04:45:18;6.20;99.90
20158;DHT22;10239;56.820;24.416;2023-05-07T04:47:47;6.30;99.90
20158;DHT22;10239;56.820;24.416;2023-05-07T04:50:14;6.60;99.90
20158;DHT22;10239;56.820;24.416;2023-05-07T04:52:43;7.00;99.90
20158;DHT22;10239;56.820;24.416;2023-05-07T04:55:11;7.40;99.90
20158;DHT22;10239;56.820;24.416;2023-05-07T04:57:40;9.60;99.90
20158;DHT22;10239;56.820;24.416;2023-05-07T05:00:11;11.40;99.90
20158;DHT22;10239;56.820;24.416;2023-05-07T05:02:44;13.00;99.90
20158;DHT22;10239;56.820;24.416;2023-05-07T05:05:15;13.20;95.80
20158;DHT22;10239;56.820;24.416;2023-05-07T05:07:44;14.60;95.00
20158;DHT22;10239;56.820;24.416;2023-05-07T05:10:12;13.60;91.60
20158;DHT22;10239;56.820;24.416;2023-05-07T05:12:40;14.50;90.70
20158;DHT22;10239;56.820;24.416;2023-05-07T05:15:09;15.90;87.30
20158;DHT22;10239;56.820;24.416;2023-05-07T05:17:37;17.20;81.70
20158;DHT22;10239;56.820;24.416;2023-05-07T05:20:06;18.00;75.80
20158;DHT22;10239;56.820;24.416;2023-05-07T05:22:34;18.30;73.50
20158;DHT22;10239;56.820;24.416;2023-05-07T05:25:01;19.10;70.10
20158;DHT22;10239;56.820;24.416;2023-05-07T05:27:29;18.90;68.70
20158;DHT22;10239;56.820;24.416;2023-05-07T05:29:57;19.40;66.80
20158;DHT22;10239;56.820;24.416;2023-05-07T05:32:25;19.10;67.90
20158;DHT22;10239;56.820;24.416;2023-05-07T05:34:55;20.30;64.90
20158;DHT22;10239;56.820;24.416;2023-05-07T05:37:23;20.90;66.80
20158;DHT22;10239;56.820;24.416;2023-05-07T05:39:52;20.70;63.90
20158;DHT22;10239;56.820;24.416;2023-05-07T05:42:20;21.80;62.40
20158;DHT22;10239;56.820;24.416;2023-05-07T05:44:48;21.60;65.80
20158;DHT22;10239;56.820;24.416;2023-05-07T05:47:16;22.10;61.30
20158;DHT22;10239;56.820;24.416;2023-05-07T05:49:43;21.70;62.80
20158;DHT22;10239;56.820;24.416;2023-05-07T05:52:15;22.30;60.40
20158;DHT22;10239;56.820;24.416;2023-05-07T05:54:45;22.30;60.00
20158;DHT22;10239;56.820;24.416;2023-05-07T05:57:14;22.80;58.50
20158;DHT22;10239;56.820;24.416;2023-05-07T05:59:41;22.90;58.60
20158;DHT22;10239;56.820;24.416;2023-05-07T06:02:09;22.60;59.80
20158;DHT22;10239;56.820;24.416;2023-05-07T06:04:38;23.40;57.30
20158;DHT22;10239;56.820;24.416;2023-05-07T06:07:06;23.70;56.40
20158;DHT22;10239;56.820;24.416;2023-05-07T06:09:33;23.20;57.40
20158;DHT22;10239;56.820;24.416;2023-05-07T06:12:01;23.50;55.40
20158;DHT22;10239;56.820;24.416;2023-05-07T06:14:30;22.90;54.00
20158;DHT22;10239;56.820;24.416;2023-05-07T06:16:58;23.70;54.10
20158;DHT22;10239;56.820;24.416;2023-05-07T06:19:26;23.30;54.20
20158;DHT22;10239;56.820;24.416;2023-05-07T06:21:57;23.80;54.50
20158;DHT22;10239;56.820;24.416;2023-05-07T06:24:28;23.90;52.50
20158;DHT22;10239;56.820;24.416;2023-05-07T06:26:57;23.90;53.10
20158;DHT22;10239;56.820;24.416;2023-05-07T06:29:29;24.00;52.60
20158;DHT22;10239;56.820;24.416;2023-05-07T06:32:13;24.50;51.30
20158;DHT22;10239;56.820;24.416;2023-05-07T06:34:43;24.00;52.90
20158;DHT22;10239;56.820;24.416;2023-05-07T06:37:12;24.50;49.90
20158;DHT22;10239;56.820;24.416;2023-05-07T06:40:01;23.70;50.00
20158;DHT22;10239;56.820;24.416;2023-05-07T06:42:31;24.80;50.70
20158;DHT22;10239;56.820;24.416;2023-05-07T06:45:15;25.00;52.70
20158;DHT22;10239;56.820;24.416;2023-05-07T06:47:43;25.00;51.10
20158;DHT22;10239;56.820;24.416;2023-05-07T06:50:11;25.20;50.50
20158;DHT22;10239;56.820;24.416;2023-05-07T06:52:39;25.50;50.90
20158;DHT22;10239;56.820;24.416;2023-05-07T06:55:07;26.00;49.20
20158;DHT22;10239;56.820;24.416;2023-05-07T06:57:34;26.00;48.50
20158;DHT22;10239;56.820;24.416;2023-05-07T07:00:03;26.20;49.90
20158;DHT22;10239;56.820;24.416;2023-05-07T07:02:33;25.90;45.50
20158;DHT22;10239;56.820;24.416;2023-05-07T07:05:00;25.60;43.00
20158;DHT22;10239;56.820;24.416;2023-05-07T07:07:29;24.80;47.00
20158;DHT22;10239;56.820;24.416;2023-05-07T07:09:57;25.90;44.10
20158;DHT22;10239;56.820;24.416;2023-05-07T07:12:25;25.60;44.00
20158;DHT22;10239;56.820;24.416;2023-05-07T07:14:53;25.50;44.30
20158;DHT22;10239;56.820;24.416;2023-05-07T07:17:22;25.70;44.90
20158;DHT22;10239;56.820;24.416;2023-05-07T07:19:49;26.20;43.20
20158;DHT22;10239;56.820;24.416;2023-05-07T07:22:17;24.80;43.90
20158;DHT22;10239;56.820;24.416;2023-05-07T07:24:45;25.30;45.30
20158;DHT22;10239;56.820;24.416;2023-05-07T07:27:16;25.90;43.80
20158;DHT22;10239;56.820;24.416;2023-05-07T07:29:43;25.00;42.00
20158;DHT22;10239;56.820;24.416;2023-05-07T07:32:11;24.80;42.30
20158;DHT22;10239;56.820;24.416;2023-05-07T07:34:40;25.20;42.20
20158;DHT22;10239;56.820;24.416;2023-05-07T07:37:08;25.70;44.80
20158;DHT22;10239;56.820;24.416;2023-05-07T07:39:37;26.90;41.80
20158;DHT22;10239;56.820;24.416;2023-05-07T07:42:08;25.60;43.30
20158;DHT22;10239;56.820;24.416;2023-05-07T07:44:37;25.90;42.50
20158;DHT22;10239;56.820;24.416;2023-05-07T07:47:11;26.20;40.80
20158;DHT22;10239;56.820;24.416;2023-05-07T07:49:40;26.50;38.90
20158;DHT22;10239;56.820;24.416;2023-05-07T07:52:09;26.00;39.30
20158;DHT22;10239;56.820;24.416;2023-05-07T07:54:38;25.80;39.60
20158;DHT22;10239;56.820;24.416;2023-05-07T07:57:06;25.20;42.90
20158;DHT22;10239;56.820;24.416;2023-05-07T07:59:34;25.40;41.20
20158;DHT22;10239;56.820;24.416;2023-05-07T08:02:02;25.70;40.60
20158;DHT22;10239;56.820;24.416;2023-05-07T08:04:30;25.50;39.60
20158;DHT22;10239;56.820;24.416;2023-05-07T08:07:03;25.20;43.70
20158;DHT22;10239;56.820;24.416;2023-05-07T08:09:35;25.90;42.70
20158;DHT22;10239;56.820;24.416;2023-05-07T08:12:07;26.20;40.40
20158;DHT22;10239;56.820;24.416;2023-05-07T08:14:35;25.50;40.50
20158;DHT22;10239;56.820;24.416;2023-05-07T08:17:05;25.40;40.40
20158;DHT22;10239;56.820;24.416;2023-05-07T08:19:34;25.10;42.00
20158;DHT22;10239;56.820;24.416;2023-05-07T08:22:03;24.90;40.90
20158;DHT22;10239;56.820;24.416;2023-05-07T08:24:33;25.00;41.10
20158;DHT22;10239;56.820;24.416;2023-05-07T08:27:01;24.20;40.80
20158;DHT22;10239;56.820;24.416;2023-05-07T08:29:29;24.50;46.10
20158;DHT22;10239;56.820;24.416;2023-05-07T08:31:57;23.80;41.50
20158;DHT22;10239;56.820;24.416;2023-05-07T08:34:24;23.60;42.70
20158;DHT22;10239;56.820;24.416;2023-05-07T08:36:53;24.20;41.90
20158;DHT22;10239;56.820;24.416;2023-05-07T08:39:24;24.30;43.00
20158;DHT22;10239;56.820;24.416;2023-05-07T08:41:55;24.40;43.30
20158;DHT22;10239;56.820;24.416;2023-05-07T08:44:26;24.50;43.90
20158;DHT22;10239;56.820;24.416;2023-05-07T08:46:58;24.30;42.20
20158;DHT22;10239;56.820;24.416;2023-05-07T08:49:28;24.60;41.80
20158;DHT22;10239;56.820;24.416;2023-05-07T08:51:56;24.50;43.20
20158;DHT22;10239;56.820;24.416;2023-05-07T08:54:25;24.70;42.50
20158;DHT22;10239;56.820;24.416;2023-05-07T08:56:53;24.50;41.80
20158;DHT22;10239;56.820;24.416;2023-05-07T08:59:21;24.20;40.60
20158;DHT22;10239;56.820;24.416;2023-05-07T09:01:49;23.90;42.30
20158;DHT22;10239;56.820;24.416;2023-05-07T09:04:17;24.00;42.00
20158;DHT22;10239;56.820;24.416;2023-05-07T09:06:46;24.40;44.30
20158;DHT22;10239;56.820;24.416;2023-05-07T09:09:17;24.60;43.30
20158;DHT22;10239;56.820;24.416;2023-05-07T09:11:57;24.80;42.60
20158;DHT22;10239;56.820;24.416;2023-05-07T09:14:28;24.80;42.70
20158;DHT22;10239;56.820;24.416;2023-05-07T09:16:58;24.70;41.30
20158;DHT22;10239;56.820;24.416;2023-05-07T09:19:28;24.70;41.80
20158;DHT22;10239;56.820;24.416;2023-05-07T09:22:05;23.80;41.90
20158;DHT22;10239;56.820;24.416;2023-05-07T09:24:49;23.20;43.40
20158;DHT22;10239;56.820;24.416;2023-05-07T09:27:20;23.50;42.50
20158;DHT22;10239;56.820;24.416;2023-05-07T09:29:48;23.90;42.70
20158;DHT22;10239;56.820;24.416;2023-05-07T09:32:16;23.60;44.10
20158;DHT22;10239;56.820;24.416;2023-05-07T09:34:44;23.50;46.20
20158;DHT22;10239;56.820;24.416;2023-05-07T09:37:13;23.60;42.80
20158;DHT22;10239;56.820;24.416;2023-05-07T09:39:43;23.90;43.00
20158;DHT22;10239;56.820;24.416;2023-05-07T09:42:13;23.80;41.40
20158;DHT22;10239;56.820;24.416;2023-05-07T09:44:44;23.40;40.40
20158;DHT22;10239;56.820;24.416;2023-05-07T09:47:19;22.60;42.80
20158;DHT22;10239;56.820;24.416;2023-05-07T09:49:51;22.20;43.60
20158;DHT22;10239;56.820;24.416;2023-05-07T09:52:21;22.20;42.90
20158;DHT22;10239;56.820;24.416;2023-05-07T09:54:52;22.90;43.40
20158;DHT22;10239;56.820;24.416;2023-05-07T09:57:26;23.00;43.30
20158;DHT22;10239;56.820;24.416;2023-05-07T10:00:00;23.00;41.00
20158;DHT22;10239;56.820;24.416;2023-05-07T10:02:36;23.00;43.60
20158;DHT22;10239;56.820;24.416;2023-05-07T10:05:14;23.00;43.60
20158;DHT22;10239;56.820;24.416;2023-05-07T10:07:42;23.50;42.20
20158;DHT22;10239;56.820;24.416;2023-05-07T10:10:10;23.30;44.10
20158;DHT22;10239;56.820;24.416;2023-05-07T10:12:42;23.00;45.40
20158;DHT22;10239;56.820;24.416;2023-05-07T10:15:16;22.80;47.70
20158;DHT22;10239;56.820;24.416;2023-05-07T10:17:48;22.90;45.40
20158;DHT22;10239;56.820;24.416;2023-05-07T10:20:17;23.00;42.20
20158;DHT22;10239;56.820;24.416;2023-05-07T10:22:47;22.70;45.40
20158;DHT22;10239;56.820;24.416;2023-05-07T10:25:27;22.80;44.00
20158;DHT22;10239;56.820;24.416;2023-05-07T10:28:09;22.40;44.50
20158;DHT22;10239;56.820;24.416;2023-05-07T10:30:49;22.20;43.90
20158;DHT22;10239;56.820;24.416;2023-05-07T10:33:26;21.90;45.40
20158;DHT22;10239;56.820;24.416;2023-05-07T10:36:00;21.70;44.90
20158;DHT22;10239;56.820;24.416;2023-05-07T10:38:30;21.90;45.30
20158;DHT22;10239;56.820;24.416;2023-05-07T10:41:00;22.10;43.10
20158;DHT22;10239;56.820;24.416;2023-05-07T10:43:44;21.90;44.70
20158;DHT22;10239;56.820;24.416;2023-05-07T10:46:32;21.90;44.90
20158;DHT22;10239;56.820;24.416;2023-05-07T10:49:22;21.60;45.40
20158;DHT22;10239;56.820;24.416;2023-05-07T10:52:23;21.50;43.70
20158;DHT22;10239;56.820;24.416;2023-05-07T10:58:25;21.00;46.20
20158;DHT22;10239;56.820;24.416;2023-05-07T11:01:52;21.00;47.50
20158;DHT22;10239;56.820;24.416;2023-05-07T11:04:27;21.00;45.40
20158;DHT22;10239;56.820;24.416;2023-05-07T11:07:28;20.90;46.90
20158;DHT22;10239;56.820;24.416;2023-05-07T11:10:02;20.40;44.40
20158;DHT22;10239;56.820;24.416;2023-05-07T11:12:55;19.90;47.10
20158;DHT22;10239;56.820;24.416;2023-05-07T11:15:39;20.00;46.30
20158;DHT22;10239;56.820;24.416;2023-05-07T11:18:22;19.90;47.10
20158;DHT22;10239;56.820;24.416;2023-05-07T11:20:58;19.70;45.20
20158;DHT22;10239;56.820;24.416;2023-05-07T11:26:27;19.20;47.10
20158;DHT22;10239;56.820;24.416;2023-05-07T11:28:56;19.40;46.00
20158;DHT22;10239;56.820;24.416;2023-05-07T11:31:27;19.30;48.00
20158;DHT22;10239;56.820;24.416;2023-05-07T11:33:59;19.30;45.60
20158;DHT22;10239;56.820;24.416;2023-05-07T11:36:32;19.10;45.40
20158;DHT22;10239;56.820;24.416;2023-05-07T11:39:02;18.90;50.10
20158;DHT22;10239;56.820;24.416;2023-05-07T11:41:35;19.40;52.90
20158;DHT22;10239;56.820;24.416;2023-05-07T11:44:04;19.50;47.20
20158;DHT22;10239;56.820;24.416;2023-05-07T11:46:32;18.70;47.10
20158;DHT22;10239;56.820;24.416;2023-05-07T11:49:00;18.50;47.30
20158;DHT22;10239;56.820;24.416;2023-05-07T11:51:28;18.60;46.50
20158;DHT22;10239;56.820;24.416;2023-05-07T11:53:56;18.50;47.00
20158;DHT22;10239;56.820;24.416;2023-05-07T11:56:24;18.60;46.20
20158;DHT22;10239;56.820;24.416;2023-05-07T11:58:52;18.20;46.80
20158;DHT22;10239;56.820;24.416;2023-05-07T12:01:19;18.00;47.90
20158;DHT22;10239;56.820;24.416;2023-05-07T12:03:47;18.00;48.40
20158;DHT22;10239;56.820;24.416;2023-05-07T12:06:17;17.80;48.20
20158;DHT22;10239;56.820;24.416;2023-05-07T12:08:45;18.10;48.10
20158;DHT22;10239;56.820;24.416;2023-05-07T12:11:18;18.20;47.80
20158;DHT22;10239;56.820;24.416;2023-05-07T12:13:48;18.00;53.10
20158;DHT22;10239;56.820;24.416;2023-05-07T12:16:16;18.30;48.60
20158;DHT22;10239;56.820;24.416;2023-05-07T12:18:45;18.40;48.10
20158;DHT22;10239;56.820;24.416;2023-05-07T12:21:13;18.40;47.30
20158;DHT22;10239;56.820;24.416;2023-05-07T12:23:42;18.10;48.50
20158;DHT22;10239;56.820;24.416;2023-05-07T12:26:10;17.90;46.80
20158;DHT22;10239;56.820;24.416;2023-05-07T12:28:38;17.80;49.30
20158;DHT22;10239;56.820;24.416;2023-05-07T12:31:06;17.80;48.50
20158;DHT22;10239;56.820;24.416;2023-05-07T12:33:35;17.70;47.90
20158;DHT22;10239;56.820;24.416;2023-05-07T12:36:05;17.70;49.00
20158;DHT22;10239;56.820;24.416;2023-05-07T12:38:36;17.80;49.70
20158;DHT22;10239;56.820;24.416;2023-05-07T12:41:05;18.00;47.40
20158;DHT22;10239;56.820;24.416;2023-05-07T12:43:34;17.80;48.20
20158;DHT22;10239;56.820;24.416;2023-05-07T12:46:05;17.60;48.60
20158;DHT22;10239;56.820;24.416;2023-05-07T12:48:33;17.50;48.10
20158;DHT22;10239;56.820;24.416;2023-05-07T12:51:02;17.50;49.10
20158;DHT22;10239;56.820;24.416;2023-05-07T12:53:30;17.40;48.70
20158;DHT22;10239;56.820;24.416;2023-05-07T12:55:59;17.10;48.90
20158;DHT22;10239;56.820;24.416;2023-05-07T12:58:29;17.30;47.70
20158;DHT22;10239;56.820;24.416;2023-05-07T13:00:58;16.90;48.40
20158;DHT22;10239;56.820;24.416;2023-05-07T13:03:32;16.70;51.40
20158;DHT22;10239;56.820;24.416;2023-05-07T13:06:05;17.10;50.80
20158;DHT22;10239;56.820;24.416;2023-05-07T13:08:35;17.50;48.30
20158;DHT22;10239;56.820;24.416;2023-05-07T13:11:04;17.50;49.80
20158;DHT22;10239;56.820;24.416;2023-05-07T13:13:33;17.40;48.60
20158;DHT22;10239;56.820;24.416;2023-05-07T13:16:02;17.30;51.60
20158;DHT22;10239;56.820;24.416;2023-05-07T13:18:31;17.50;50.40
20158;DHT22;10239;56.820;24.416;2023-05-07T13:20:59;17.40;49.80
20158;DHT22;10239;56.820;24.416;2023-05-07T13:23:28;17.40;50.80
20158;DHT22;10239;56.820;24.416;2023-05-07T13:25:55;17.30;51.70
20158;DHT22;10239;56.820;24.416;2023-05-07T13:28:24;17.30;51.30
20158;DHT22;10239;56.820;24.416;2023-05-07T13:30:53;17.40;52.80
20158;DHT22;10239;56.820;24.416;2023-05-07T13:33:21;17.80;50.90
20158;DHT22;10239;56.820;24.416;2023-05-07T13:35:49;17.90;51.30
20158;DHT22;10239;56.820;24.416;2023-05-07T13:38:16;18.20;54.00
20158;DHT22;10239;56.820;24.416;2023-05-07T13:40:45;18.20;50.50
20158;DHT22;10239;56.820;24.416;2023-05-07T13:43:12;17.90;51.00
20158;DHT22;10239;56.820;24.416;2023-05-07T13:45:40;18.00;51.10
20158;DHT22;10239;56.820;24.416;2023-05-07T13:48:08;18.10;52.60
20158;DHT22;10239;56.820;24.416;2023-05-07T13:50:36;17.90;53.30
20158;DHT22;10239;56.820;24.416;2023-05-07T13:53:03;17.70;53.70
20158;DHT22;10239;56.820;24.416;2023-05-07T13:55:31;17.40;53.80
20158;DHT22;10239;56.820;24.416;2023-05-07T13:58:00;17.10;54.50
20158;DHT22;10239;56.820;24.416;2023-05-07T14:00:33;17.10;56.30
20158;DHT22;10239;56.820;24.416;2023-05-07T14:03:01;17.10;56.70
20158;DHT22;10239;56.820;24.416;2023-05-07T14:05:29;16.80;56.20
20158;DHT22;10239;56.820;24.416;2023-05-07T14:08:00;16.70;57.30
20158;DHT22;10239;56.820;24.416;2023-05-07T14:10:27;16.60;56.00
20158;DHT22;10239;56.820;24.416;2023-05-07T14:12:55;16.40;56.80
20158;DHT22;10239;56.820;24.416;2023-05-07T14:15:22;16.30;58.10
20158;DHT22;10239;56.820;24.416;2023-05-07T14:17:50;16.20;57.80
20158;DHT22;10239;56.820;24.416;2023-05-07T14:20:18;16.10;57.70
20158;DHT22;10239;56.820;24.416;2023-05-07T14:22:46;16.00;57.20
20158;DHT22;10239;56.820;24.416;2023-05-07T14:25:13;15.90;57.00
20158;DHT22;10239;56.820;24.416;2023-05-07T14:27:45;15.80;58.90
20158;DHT22;10239;56.820;24.416;2023-05-07T14:30:12;15.80;57.60
20158;DHT22;10239;56.820;24.416;2023-05-07T14:32:40;15.90;57.80
20158;DHT22;10239;56.820;24.416;2023-05-07T14:35:08;15.80;58.30
20158;DHT22;10239;56.820;24.416;2023-05-07T14:37:36;15.80;58.20
20158;DHT22;10239;56.820;24.416;2023-05-07T14:40:04;15.90;58.00
20158;DHT22;10239;56.820;24.416;2023-05-07T14:42:32;15.90;57.70
20158;DHT22;10239;56.820;24.416;2023-05-07T14:44:59;15.80;58.00
20158;DHT22;10239;56.820;24.416;2023-05-07T14:47:27;15.50;58.00
20158;DHT22;10239;56.820;24.416;2023-05-07T14:49:55;15.40;58.10
20158;DHT22;10239;56.820;24.416;2023-05-07T14:52:24;15.30;58.00
20158;DHT22;10239;56.820;24.416;2023-05-07T14:54:53;15.30;58.10
20158;DHT22;10239;56.820;24.416;2023-05-07T14:57:20;15.20;59.40
20158;DHT22;10239;56.820;24.416;2023-05-07T14:59:48;15.20;59.70
20158;DHT22;10239;56.820;24.416;2023-05-07T15:02:16;15.20;60.70
20158;DHT22;10239;56.820;24.416;2023-05-07T15:04:47;15.20;60.80
20158;DHT22;10239;56.820;24.416;2023-05-07T15:07:15;15.20;60.50
20158;DHT22;10239;56.820;24.416;2023-05-07T15:09:44;15.20;60.20
20158;DHT22;10239;56.820;24.416;2023-05-07T15:12:11;15.20;62.20
20158;DHT22;10239;56.820;24.416;2023-05-07T15:14:39;15.10;61.00
20158;DHT22;10239;56.820;24.416;2023-05-07T15:17:06;15.00;61.40
20158;DHT22;10239;56.820;24.416;2023-05-07T15:19:34;15.00;62.00
20158;DHT22;10239;56.820;24.416;2023-05-07T15:22:02;14.80;60.80
20158;DHT22;10239;56.820;24.416;2023-05-07T15:24:30;14.80;61.60
20158;DHT22;10239;56.820;24.416;2023-05-07T15:26:58;14.80;62.10
20158;DHT22;10239;56.820;24.416;2023-05-07T15:29:25;14.80;61.80
20158;DHT22;10239;56.820;24.416;2023-05-07T15:31:53;14.80;61.10
20158;DHT22;10239;56.820;24.416;2023-05-07T15:34:22;14.70;60.50
20158;DHT22;10239;56.820;24.416;2023-05-07T15:36:51;14.70;62.40
20158;DHT22;10239;56.820;24.416;2023-05-07T15:39:18;14.70;62.50
20158;DHT22;10239;56.820;24.416;2023-05-07T15:41:45;14.70;60.70
20158;DHT22;10239;56.820;24.416;2023-05-07T15:44:13;14.70;62.10